sensor_id;sensor_type;location;lat;lon;timestamp;P1;durP1;ratioP1;P2;durP2;ratioP2
79712;SDS011;69206;51.420;5.400;2023-04-24T00:00:27;0.60;;;0.50;;
79712;SDS011;69206;51.420;5.400;2023-04-24T00:02:52;7.00;;;2.77;;
79712;SDS011;69206;51.420;5.400;2023-04-24T00:05:22;6.00;;;1.60;;
79712;SDS011;69206;51.420;5.400;2023-04-24T00:07:47;9.50;;;2.67;;
79712;SDS011;69206;51.420;5.400;2023-04-24T00:10:12;4.60;;;2.53;;
79712;SDS011;69206;51.420;5.400;2023-04-24T00:12:38;0.63;;;0.53;;
79712;SDS011;69206;51.420;5.400;2023-04-24T00:15:03;0.57;;;0.57;;
79712;SDS011;69206;51.420;5.400;2023-04-24T00:17:29;1.10;;;0.60;;
79712;SDS011;69206;51.420;5.400;2023-04-24T00:19:55;1.20;;;1.07;;
79712;SDS011;69206;51.420;5.400;2023-04-24T00:22:23;3.53;;;1.73;;
79712;SDS011;69206;51.420;5.400;2023-04-24T00:24:49;1.30;;;1.07;;
79712;SDS011;69206;51.420;5.400;2023-04-24T00:27:15;0.63;;;0.63;;
79712;SDS011;69206;51.420;5.400;2023-04-24T00:29:40;2.73;;;0.60;;
79712;SDS011;69206;51.420;5.400;2023-04-24T00:32:06;3.50;;;1.33;;
79712;SDS011;69206;51.420;5.400;2023-04-24T00:34:31;1.50;;;0.77;;
79712;SDS011;69206;51.420;5.400;2023-04-24T00:36:57;1.80;;;1.50;;
79712;SDS011;69206;51.420;5.400;2023-04-24T00:39:23;1.77;;;1.33;;
79712;SDS011;69206;51.420;5.400;2023-04-24T00:41:48;5.63;;;1.47;;
79712;SDS011;69206;51.420;5.400;2023-04-24T00:44:15;2.07;;;1.80;;
79712;SDS011;69206;51.420;5.400;2023-04-24T00:46:41;1.73;;;1.37;;
79712;SDS011;69206;51.420;5.400;2023-04-24T00:49:07;1.20;;;0.90;;
79712;SDS011;69206;51.420;5.400;2023-04-24T00:51:33;0.97;;;0.97;;
79712;SDS011;69206;51.420;5.400;2023-04-24T00:53:59;2.50;;;1.57;;
79712;SDS011;69206;51.420;5.400;2023-04-24T00:56:25;4.17;;;1.60;;
79712;SDS011;69206;51.420;5.400;2023-04-24T00:58:51;1.43;;;0.97;;
79712;SDS011;69206;51.420;5.400;2023-04-24T01:01:18;1.43;;;1.33;;
79712;SDS011;69206;51.420;5.400;2023-04-24T01:03:45;0.87;;;0.87;;
79712;SDS011;69206;51.420;5.400;2023-04-24T01:06:11;1.47;;;1.37;;
79712;SDS011;69206;51.420;5.400;2023-04-24T01:08:37;0.73;;;0.73;;
79712;SDS011;69206;51.420;5.400;2023-04-24T01:11:03;2.83;;;1.23;;
79712;SDS011;69206;51.420;5.400;2023-04-24T01:13:29;1.83;;;1.73;;
79712;SDS011;69206;51.420;5.400;2023-04-24T01:15:56;2.07;;;1.30;;
79712;SDS011;69206;51.420;5.400;2023-04-24T01:18:22;3.13;;;2.37;;
79712;SDS011;69206;51.420;5.400;2023-04-24T01:20:47;1.57;;;1.30;;
79712;SDS011;69206;51.420;5.400;2023-04-24T01:23:18;1.17;;;1.07;;
79712;SDS011;69206;51.420;5.400;2023-04-24T01:25:44;1.63;;;1.53;;
79712;SDS011;69206;51.420;5.400;2023-04-24T01:28:10;2.53;;;1.40;;
79712;SDS011;69206;51.420;5.400;2023-04-24T01:30:35;4.20;;;2.07;;
79712;SDS011;69206;51.420;5.400;2023-04-24T01:33:01;1.73;;;1.30;;
79712;SDS011;69206;51.420;5.400;2023-04-24T01:35:27;1.50;;;1.40;;
79712;SDS011;69206;51.420;5.400;2023-04-24T01:37:52;1.70;;;1.27;;
79712;SDS011;69206;51.420;5.400;2023-04-24T01:40:18;2.90;;;2.20;;
79712;SDS011;69206;51.420;5.400;2023-04-24T01:42:43;22.93;;;2.70;;
79712;SDS011;69206;51.420;5.400;2023-04-24T01:45:10;4.00;;;2.80;;
79712;SDS011;69206;51.420;5.400;2023-04-24T01:47:36;4.70;;;1.70;;
79712;SDS011;69206;51.420;5.400;2023-04-24T01:50:03;3.60;;;2.27;;
79712;SDS011;69206;51.420;5.400;2023-04-24T01:52:29;1.93;;;1.83;;
79712;SDS011;69206;51.420;5.400;2023-04-24T01:54:56;1.23;;;1.13;;
79712;SDS011;69206;51.420;5.400;2023-04-24T01:57:24;6.00;;;2.40;;
79712;SDS011;69206;51.420;5.400;2023-04-24T01:59:50;2.57;;;2.37;;
79712;SDS011;69206;51.420;5.400;2023-04-24T02:02:16;2.00;;;1.33;;
79712;SDS011;69206;51.420;5.400;2023-04-24T02:04:41;3.10;;;1.37;;
79712;SDS011;69206;51.420;5.400;2023-04-24T02:07:07;7.47;;;2.03;;
79712;SDS011;69206;51.420;5.400;2023-04-24T02:09:32;2.07;;;1.77;;
79712;SDS011;69206;51.420;5.400;2023-04-24T02:11:58;4.60;;;2.00;;
79712;SDS011;69206;51.420;5.400;2023-04-24T02:14:23;6.17;;;1.63;;
79712;SDS011;69206;51.420;5.400;2023-04-24T02:16:49;6.53;;;1.60;;
79712;SDS011;69206;51.420;5.400;2023-04-24T02:19:14;26.80;;;3.10;;
79712;SDS011;69206;51.420;5.400;2023-04-24T02:21:40;3.33;;;1.87;;
79712;SDS011;69206;51.420;5.400;2023-04-24T02:24:06;1.73;;;1.57;;
79712;SDS011;69206;51.420;5.400;2023-04-24T02:26:31;5.47;;;2.50;;
79712;SDS011;69206;51.420;5.400;2023-04-24T02:28:57;1.57;;;1.47;;
79712;SDS011;69206;51.420;5.400;2023-04-24T02:31:22;1.73;;;1.60;;
79712;SDS011;69206;51.420;5.400;2023-04-24T02:33:47;2.73;;;1.23;;
79712;SDS011;69206;51.420;5.400;2023-04-24T02:36:13;2.00;;;1.87;;
79712;SDS011;69206;51.420;5.400;2023-04-24T02:38:38;1.13;;;1.03;;
79712;SDS011;69206;51.420;5.400;2023-04-24T02:41:04;1.67;;;1.57;;
79712;SDS011;69206;51.420;5.400;2023-04-24T02:43:31;1.53;;;1.37;;
79712;SDS011;69206;51.420;5.400;2023-04-24T02:45:57;1.30;;;1.23;;
79712;SDS011;69206;51.420;5.400;2023-04-24T02:48:23;1.13;;;1.00;;
79712;SDS011;69206;51.420;5.400;2023-04-24T02:50:48;0.37;;;0.37;;
79712;SDS011;69206;51.420;5.400;2023-04-24T02:53:15;4.67;;;2.50;;
79712;SDS011;69206;51.420;5.400;2023-04-24T02:55:40;3.17;;;1.43;;
79712;SDS011;69206;51.420;5.400;2023-04-24T02:58:06;10.90;;;2.50;;
79712;SDS011;69206;51.420;5.400;2023-04-24T03:00:31;1.53;;;1.43;;
79712;SDS011;69206;51.420;5.400;2023-04-24T03:02:56;3.00;;;1.57;;
79712;SDS011;69206;51.420;5.400;2023-04-24T03:05:22;1.23;;;1.17;;
79712;SDS011;69206;51.420;5.400;2023-04-24T03:07:47;7.53;;;2.73;;
79712;SDS011;69206;51.420;5.400;2023-04-24T03:10:12;2.07;;;1.57;;
79712;SDS011;69206;51.420;5.400;2023-04-24T03:12:39;7.57;;;1.53;;
79712;SDS011;69206;51.420;5.400;2023-04-24T03:15:05;2.53;;;2.17;;
79712;SDS011;69206;51.420;5.400;2023-04-24T03:17:31;2.00;;;1.70;;
79712;SDS011;69206;51.420;5.400;2023-04-24T03:19:56;0.80;;;0.80;;
79712;SDS011;69206;51.420;5.400;2023-04-24T03:22:21;7.07;;;2.80;;
79712;SDS011;69206;51.420;5.400;2023-04-24T03:24:47;1.27;;;0.90;;
79712;SDS011;69206;51.420;5.400;2023-04-24T03:27:12;4.17;;;2.03;;
79712;SDS011;69206;51.420;5.400;2023-04-24T03:29:37;1.27;;;1.17;;
79712;SDS011;69206;51.420;5.400;2023-04-24T03:32:03;1.53;;;1.33;;
79712;SDS011;69206;51.420;5.400;2023-04-24T03:34:28;0.43;;;0.43;;
79712;SDS011;69206;51.420;5.400;2023-04-24T03:36:54;0.50;;;0.50;;
79712;SDS011;69206;51.420;5.400;2023-04-24T03:39:19;1.70;;;0.87;;
79712;SDS011;69206;51.420;5.400;2023-04-24T03:41:44;1.40;;;1.30;;
79712;SDS011;69206;51.420;5.400;2023-04-24T03:44:10;15.67;;;1.43;;
79712;SDS011;69206;51.420;5.400;2023-04-24T03:46:35;1.53;;;0.87;;
79712;SDS011;69206;51.420;5.400;2023-04-24T03:49:01;1.10;;;1.03;;
79712;SDS011;69206;51.420;5.400;2023-04-24T03:51:26;3.77;;;2.03;;
79712;SDS011;69206;51.420;5.400;2023-04-24T03:53:53;1.17;;;1.07;;
79712;SDS011;69206;51.420;5.400;2023-04-24T03:56:18;1.40;;;1.23;;
79712;SDS011;69206;51.420;5.400;2023-04-24T03:58:44;1.33;;;1.23;;
79712;SDS011;69206;51.420;5.400;2023-04-24T04:01:10;0.57;;;0.57;;
79712;SDS011;69206;51.420;5.400;2023-04-24T04:03:36;0.87;;;0.73;;
79712;SDS011;69206;51.420;5.400;2023-04-24T04:06:02;1.57;;;1.47;;
79712;SDS011;69206;51.420;5.400;2023-04-24T04:08:27;3.70;;;1.37;;
79712;SDS011;69206;51.420;5.400;2023-04-24T04:10:52;2.13;;;1.10;;
79712;SDS011;69206;51.420;5.400;2023-04-24T04:13:18;1.67;;;1.20;;
79712;SDS011;69206;51.420;5.400;2023-04-24T04:15:43;1.93;;;0.87;;
79712;SDS011;69206;51.420;5.400;2023-04-24T04:18:08;1.20;;;1.10;;
79712;SDS011;69206;51.420;5.400;2023-04-24T04:20:34;6.17;;;1.10;;
79712;SDS011;69206;51.420;5.400;2023-04-24T04:23:00;1.17;;;0.93;;
79712;SDS011;69206;51.420;5.400;2023-04-24T04:25:25;1.97;;;1.10;;
79712;SDS011;69206;51.420;5.400;2023-04-24T04:27:50;1.57;;;1.10;;
79712;SDS011;69206;51.420;5.400;2023-04-24T04:30:17;2.27;;;1.07;;
79712;SDS011;69206;51.420;5.400;2023-04-24T04:32:43;0.60;;;0.60;;
79712;SDS011;69206;51.420;5.400;2023-04-24T04:35:09;1.50;;;1.40;;
79712;SDS011;69206;51.420;5.400;2023-04-24T04:37:34;1.33;;;1.13;;
79712;SDS011;69206;51.420;5.400;2023-04-24T04:40:00;0.50;;;0.50;;
79712;SDS011;69206;51.420;5.400;2023-04-24T04:42:31;4.70;;;1.37;;
79712;SDS011;69206;51.420;5.400;2023-04-24T04:44:57;0.60;;;0.60;;
79712;SDS011;69206;51.420;5.400;2023-04-24T04:47:23;0.33;;;0.33;;
79712;SDS011;69206;51.420;5.400;2023-04-24T04:49:49;0.80;;;0.73;;
79712;SDS011;69206;51.420;5.400;2023-04-24T04:52:16;2.07;;;1.47;;
79712;SDS011;69206;51.420;5.400;2023-04-24T04:54:42;2.60;;;1.50;;
79712;SDS011;69206;51.420;5.400;2023-04-24T04:57:07;1.70;;;0.87;;
79712;SDS011;69206;51.420;5.400;2023-04-24T04:59:33;0.80;;;0.80;;
79712;SDS011;69206;51.420;5.400;2023-04-24T05:01:58;1.80;;;1.17;;
79712;SDS011;69206;51.420;5.400;2023-04-24T05:04:23;0.53;;;0.53;;
79712;SDS011;69206;51.420;5.400;2023-04-24T05:06:49;0.60;;;0.60;;
79712;SDS011;69206;51.420;5.400;2023-04-24T05:09:16;1.10;;;1.10;;
79712;SDS011;69206;51.420;5.400;2023-04-24T05:11:41;0.60;;;0.60;;
79712;SDS011;69206;51.420;5.400;2023-04-24T05:14:06;1.07;;;1.03;;
79712;SDS011;69206;51.420;5.400;2023-04-24T05:16:33;0.20;;;0.20;;
79712;SDS011;69206;51.420;5.400;2023-04-24T05:18:58;0.73;;;0.73;;
79712;SDS011;69206;51.420;5.400;2023-04-24T05:21:24;0.30;;;0.30;;
79712;SDS011;69206;51.420;5.400;2023-04-24T05:23:50;0.10;;;0.10;;
79712;SDS011;69206;51.420;5.400;2023-04-24T05:26:15;0.40;;;0.40;;
79712;SDS011;69206;51.420;5.400;2023-04-24T05:28:41;0.50;;;0.50;;
79712;SDS011;69206;51.420;5.400;2023-04-24T05:31:06;1.10;;;0.60;;
79712;SDS011;69206;51.420;5.400;2023-04-24T05:33:32;0.50;;;0.50;;
79712;SDS011;69206;51.420;5.400;2023-04-24T05:35:57;0.53;;;0.43;;
79712;SDS011;69206;51.420;5.400;2023-04-24T05:38:22;0.50;;;0.40;;
79712;SDS011;69206;51.420;5.400;2023-04-24T05:40:48;0.10;;;0.10;;
79712;SDS011;69206;51.420;5.400;2023-04-24T05:43:13;1.53;;;1.03;;
79712;SDS011;69206;51.420;5.400;2023-04-24T05:45:39;2.73;;;0.47;;
79712;SDS011;69206;51.420;5.400;2023-04-24T05:48:04;0.37;;;0.37;;
79712;SDS011;69206;51.420;5.400;2023-04-24T05:50:30;0.60;;;0.30;;
79712;SDS011;69206;51.420;5.400;2023-04-24T05:52:56;0.03;;;0.03;;
79712;SDS011;69206;51.420;5.400;2023-04-24T05:55:25;0.23;;;0.23;;
79712;SDS011;69206;51.420;5.400;2023-04-24T05:57:50;0.93;;;0.63;;
79712;SDS011;69206;51.420;5.400;2023-04-24T06:00:16;0.50;;;0.50;;
79712;SDS011;69206;51.420;5.400;2023-04-24T06:02:43;0.20;;;0.20;;
79712;SDS011;69206;51.420;5.400;2023-04-24T06:05:09;0.00;;;0.00;;
79712;SDS011;69206;51.420;5.400;2023-04-24T06:07:34;0.60;;;0.57;;
79712;SDS011;69206;51.420;5.400;2023-04-24T06:09:59;0.87;;;0.60;;
79712;SDS011;69206;51.420;5.400;2023-04-24T06:12:25;0.63;;;0.63;;
79712;SDS011;69206;51.420;5.400;2023-04-24T06:14:51;0.20;;;0.20;;
79712;SDS011;69206;51.420;5.400;2023-04-24T06:17:16;0.23;;;0.23;;
79712;SDS011;69206;51.420;5.400;2023-04-24T06:19:42;0.77;;;0.77;;
79712;SDS011;69206;51.420;5.400;2023-04-24T06:22:07;0.43;;;0.43;;
79712;SDS011;69206;51.420;5.400;2023-04-24T06:24:33;0.20;;;0.20;;
79712;SDS011;69206;51.420;5.400;2023-04-24T06:26:59;1.07;;;1.00;;
79712;SDS011;69206;51.420;5.400;2023-04-24T06:29:26;0.30;;;0.30;;
79712;SDS011;69206;51.420;5.400;2023-04-24T06:31:51;0.60;;;0.60;;
79712;SDS011;69206;51.420;5.400;2023-04-24T06:34:17;0.10;;;0.10;;
79712;SDS011;69206;51.420;5.400;2023-04-24T06:36:42;1.97;;;0.77;;
79712;SDS011;69206;51.420;5.400;2023-04-24T06:39:08;0.40;;;0.40;;
79712;SDS011;69206;51.420;5.400;2023-04-24T06:41:34;0.97;;;0.97;;
79712;SDS011;69206;51.420;5.400;2023-04-24T06:43:59;0.80;;;0.80;;
79712;SDS011;69206;51.420;5.400;2023-04-24T06:46:25;1.60;;;0.97;;
79712;SDS011;69206;51.420;5.400;2023-04-24T06:48:52;0.20;;;0.20;;
79712;SDS011;69206;51.420;5.400;2023-04-24T06:51:21;1.00;;;0.93;;
79712;SDS011;69206;51.420;5.400;2023-04-24T06:53:53;0.90;;;0.70;;
79712;SDS011;69206;51.420;5.400;2023-04-24T06:56:21;1.37;;;1.17;;
79712;SDS011;69206;51.420;5.400;2023-04-24T06:58:46;4.13;;;1.37;;
79712;SDS011;69206;51.420;5.400;2023-04-24T07:01:12;0.27;;;0.27;;
79712;SDS011;69206;51.420;5.400;2023-04-24T07:03:37;1.20;;;0.60;;
79712;SDS011;69206;51.420;5.400;2023-04-24T07:06:03;1.37;;;1.27;;
79712;SDS011;69206;51.420;5.400;2023-04-24T07:08:29;1.07;;;1.07;;
79712;SDS011;69206;51.420;5.400;2023-04-24T07:10:55;1.37;;;1.27;;
79712;SDS011;69206;51.420;5.400;2023-04-24T07:13:22;2.73;;;1.77;;
79712;SDS011;69206;51.420;5.400;2023-04-24T07:15:47;0.87;;;0.83;;
79712;SDS011;69206;51.420;5.400;2023-04-24T07:18:15;0.60;;;0.60;;
79712;SDS011;69206;51.420;5.400;2023-04-24T07:20:41;3.37;;;1.47;;
79712;SDS011;69206;51.420;5.400;2023-04-24T07:23:06;1.07;;;0.97;;
79712;SDS011;69206;51.420;5.400;2023-04-24T07:25:32;0.67;;;0.67;;
79712;SDS011;69206;51.420;5.400;2023-04-24T07:27:58;4.63;;;1.70;;
79712;SDS011;69206;51.420;5.400;2023-04-24T07:30:23;1.40;;;1.30;;
79712;SDS011;69206;51.420;5.400;2023-04-24T07:32:49;1.37;;;1.27;;
79712;SDS011;69206;51.420;5.400;2023-04-24T07:35:14;1.67;;;0.80;;
79712;SDS011;69206;51.420;5.400;2023-04-24T07:37:39;0.87;;;0.87;;
79712;SDS011;69206;51.420;5.400;2023-04-24T07:40:05;2.63;;;1.33;;
79712;SDS011;69206;51.420;5.400;2023-04-24T07:42:31;1.17;;;0.90;;
79712;SDS011;69206;51.420;5.400;2023-04-24T07:44:59;1.00;;;1.00;;
79712;SDS011;69206;51.420;5.400;2023-04-24T07:47:24;1.33;;;1.23;;
79712;SDS011;69206;51.420;5.400;2023-04-24T07:49:50;1.07;;;0.87;;
79712;SDS011;69206;51.420;5.400;2023-04-24T07:52:16;0.63;;;0.63;;
79712;SDS011;69206;51.420;5.400;2023-04-24T07:54:41;1.93;;;1.83;;
79712;SDS011;69206;51.420;5.400;2023-04-24T07:57:07;1.43;;;1.33;;
79712;SDS011;69206;51.420;5.400;2023-04-24T07:59:33;1.70;;;1.43;;
79712;SDS011;69206;51.420;5.400;2023-04-24T08:01:59;0.70;;;0.70;;
79712;SDS011;69206;51.420;5.400;2023-04-24T08:04:26;1.00;;;1.00;;
79712;SDS011;69206;51.420;5.400;2023-04-24T08:06:51;2.23;;;1.27;;
79712;SDS011;69206;51.420;5.400;2023-04-24T08:09:17;0.60;;;0.60;;
79712;SDS011;69206;51.420;5.400;2023-04-24T08:11:43;1.97;;;1.77;;
79712;SDS011;69206;51.420;5.400;2023-04-24T08:14:08;0.73;;;0.73;;
79712;SDS011;69206;51.420;5.400;2023-04-24T08:16:34;1.53;;;1.43;;
79712;SDS011;69206;51.420;5.400;2023-04-24T08:19:00;1.60;;;1.07;;
79712;SDS011;69206;51.420;5.400;2023-04-24T08:21:25;1.63;;;1.47;;
79712;SDS011;69206;51.420;5.400;2023-04-24T08:23:52;0.30;;;0.30;;
79712;SDS011;69206;51.420;5.400;2023-04-24T08:26:17;0.97;;;0.97;;
79712;SDS011;69206;51.420;5.400;2023-04-24T08:28:43;0.57;;;0.57;;
79712;SDS011;69206;51.420;5.400;2023-04-24T08:31:08;0.57;;;0.43;;
79712;SDS011;69206;51.420;5.400;2023-04-24T08:33:34;0.53;;;0.53;;
79712;SDS011;69206;51.420;5.400;2023-04-24T08:36:03;10.50;;;1.10;;
79712;SDS011;69206;51.420;5.400;2023-04-24T08:38:30;1.03;;;1.03;;
79712;SDS011;69206;51.420;5.400;2023-04-24T08:40:56;0.50;;;0.50;;
79712;SDS011;69206;51.420;5.400;2023-04-24T08:43:22;0.30;;;0.30;;
79712;SDS011;69206;51.420;5.400;2023-04-24T08:45:48;3.37;;;2.03;;
79712;SDS011;69206;51.420;5.400;2023-04-24T08:48:14;0.40;;;0.40;;
79712;SDS011;69206;51.420;5.400;2023-04-24T08:50:40;1.20;;;0.70;;
79712;SDS011;69206;51.420;5.400;2023-04-24T08:53:08;0.73;;;0.60;;
79712;SDS011;69206;51.420;5.400;2023-04-24T08:55:33;1.00;;;0.93;;
79712;SDS011;69206;51.420;5.400;2023-04-24T08:57:59;14.20;;;0.90;;
79712;SDS011;69206;51.420;5.400;2023-04-24T09:00:26;0.60;;;0.60;;
79712;SDS011;69206;51.420;5.400;2023-04-24T09:02:52;0.20;;;0.20;;
79712;SDS011;69206;51.420;5.400;2023-04-24T09:05:18;0.40;;;0.40;;
79712;SDS011;69206;51.420;5.400;2023-04-24T09:07:48;0.30;;;0.30;;
79712;SDS011;69206;51.420;5.400;2023-04-24T09:10:17;1.47;;;0.87;;
79712;SDS011;69206;51.420;5.400;2023-04-24T09:12:42;0.13;;;0.13;;
79712;SDS011;69206;51.420;5.400;2023-04-24T09:15:10;0.10;;;0.10;;
79712;SDS011;69206;51.420;5.400;2023-04-24T09:17:36;1.03;;;0.93;;
79712;SDS011;69206;51.420;5.400;2023-04-24T09:20:02;0.20;;;0.20;;
79712;SDS011;69206;51.420;5.400;2023-04-24T09:22:30;0.33;;;0.33;;
79712;SDS011;69206;51.420;5.400;2023-04-24T09:24:59;6.07;;;1.57;;
79712;SDS011;69206;51.420;5.400;2023-04-24T09:27:29;0.73;;;0.73;;
79712;SDS011;69206;51.420;5.400;2023-04-24T09:29:55;2.80;;;1.03;;
79712;SDS011;69206;51.420;5.400;2023-04-24T09:32:22;6.87;;;1.80;;
79712;SDS011;69206;51.420;5.400;2023-04-24T09:35:04;12.40;;;3.00;;
79712;SDS011;69206;51.420;5.400;2023-04-24T09:37:43;14.73;;;4.00;;
79712;SDS011;69206;51.420;5.400;2023-04-24T09:40:20;17.53;;;4.20;;
79712;SDS011;69206;51.420;5.400;2023-04-24T09:42:54;26.40;;;5.00;;
79712;SDS011;69206;51.420;5.400;2023-04-24T09:45:35;25.80;;;4.47;;
79712;SDS011;69206;51.420;5.400;2023-04-24T09:48:01;17.53;;;3.60;;
79712;SDS011;69206;51.420;5.400;2023-04-24T09:50:29;20.27;;;4.73;;
79712;SDS011;69206;51.420;5.400;2023-04-24T09:52:57;19.73;;;5.40;;
79712;SDS011;69206;51.420;5.400;2023-04-24T09:55:24;12.33;;;3.13;;
79712;SDS011;69206;51.420;5.400;2023-04-24T09:57:58;18.73;;;4.07;;
79712;SDS011;69206;51.420;5.400;2023-04-24T10:03:01;15.13;;;3.43;;
79712;SDS011;69206;51.420;5.400;2023-04-24T10:05:35;22.93;;;3.67;;
79712;SDS011;69206;51.420;5.400;2023-04-24T10:08:05;16.20;;;3.47;;
79712;SDS011;69206;51.420;5.400;2023-04-24T10:10:33;13.90;;;3.47;;
79712;SDS011;69206;51.420;5.400;2023-04-24T10:13:01;9.70;;;2.50;;
79712;SDS011;69206;51.420;5.400;2023-04-24T10:15:27;15.67;;;2.90;;
79712;SDS011;69206;51.420;5.400;2023-04-24T10:17:53;10.17;;;2.87;;
79712;SDS011;69206;51.420;5.400;2023-04-24T10:20:22;19.10;;;4.57;;
79712;SDS011;69206;51.420;5.400;2023-04-24T10:22:50;14.60;;;4.10;;
79712;SDS011;69206;51.420;5.400;2023-04-24T10:25:21;16.03;;;3.60;;
79712;SDS011;69206;51.420;5.400;2023-04-24T10:27:49;18.07;;;3.20;;
79712;SDS011;69206;51.420;5.400;2023-04-24T10:30:15;7.33;;;2.70;;
79712;SDS011;69206;51.420;5.400;2023-04-24T10:32:41;7.97;;;2.80;;
79712;SDS011;69206;51.420;5.400;2023-04-24T10:35:07;12.80;;;2.57;;
79712;SDS011;69206;51.420;5.400;2023-04-24T10:37:37;10.20;;;2.73;;
79712;SDS011;69206;51.420;5.400;2023-04-24T10:40:05;11.37;;;2.67;;
79712;SDS011;69206;51.420;5.400;2023-04-24T10:42:33;10.37;;;2.20;;
79712;SDS011;69206;51.420;5.400;2023-04-24T10:44:58;8.17;;;1.63;;
79712;SDS011;69206;51.420;5.400;2023-04-24T10:47:26;13.03;;;2.40;;
79712;SDS011;69206;51.420;5.400;2023-04-24T10:49:52;9.63;;;1.90;;
79712;SDS011;69206;51.420;5.400;2023-04-24T10:52:17;5.07;;;1.37;;
79712;SDS011;69206;51.420;5.400;2023-04-24T10:54:44;11.07;;;2.00;;
79712;SDS011;69206;51.420;5.400;2023-04-24T10:59:49;11.03;;;1.97;;
79712;SDS011;69206;51.420;5.400;2023-04-24T11:02:38;10.77;;;1.37;;
79712;SDS011;69206;51.420;5.400;2023-04-24T11:05:05;10.70;;;1.50;;
79712;SDS011;69206;51.420;5.400;2023-04-24T11:10:37;5.17;;;1.60;;
79712;SDS011;69206;51.420;5.400;2023-04-24T11:13:03;2.57;;;1.30;;
79712;SDS011;69206;51.420;5.400;2023-04-24T11:15:29;5.90;;;2.00;;
79712;SDS011;69206;51.420;5.400;2023-04-24T11:17:55;6.13;;;1.53;;
79712;SDS011;69206;51.420;5.400;2023-04-24T11:20:22;4.30;;;1.20;;
79712;SDS011;69206;51.420;5.400;2023-04-24T11:22:50;6.50;;;1.60;;
79712;SDS011;69206;51.420;5.400;2023-04-24T11:25:19;8.57;;;1.70;;
79712;SDS011;69206;51.420;5.400;2023-04-24T11:27:47;5.67;;;1.00;;
79712;SDS011;69206;51.420;5.400;2023-04-24T11:30:17;4.63;;;1.17;;
79712;SDS011;69206;51.420;5.400;2023-04-24T11:32:43;8.27;;;1.10;;
79712;SDS011;69206;51.420;5.400;2023-04-24T11:37:42;5.83;;;1.27;;
79712;SDS011;69206;51.420;5.400;2023-04-24T11:40:11;6.77;;;1.60;;
79712;SDS011;69206;51.420;5.400;2023-04-24T11:42:38;8.93;;;1.40;;
79712;SDS011;69206;51.420;5.400;2023-04-24T11:45:07;5.70;;;1.53;;
79712;SDS011;69206;51.420;5.400;2023-04-24T11:47:34;6.50;;;1.20;;
79712;SDS011;69206;51.420;5.400;2023-04-24T11:50:00;3.37;;;1.00;;
79712;SDS011;69206;51.420;5.400;2023-04-24T11:52:26;4.53;;;1.10;;
79712;SDS011;69206;51.420;5.400;2023-04-24T11:54:51;3.40;;;1.30;;
79712;SDS011;69206;51.420;5.400;2023-04-24T11:57:20;5.43;;;1.93;;
79712;SDS011;69206;51.420;5.400;2023-04-24T11:59:46;7.97;;;1.70;;
79712;SDS011;69206;51.420;5.400;2023-04-24T12:02:25;3.30;;;0.87;;
79712;SDS011;69206;51.420;5.400;2023-04-24T12:04:52;4.97;;;1.10;;
79712;SDS011;69206;51.420;5.400;2023-04-24T12:07:19;6.70;;;1.03;;
79712;SDS011;69206;51.420;5.400;2023-04-24T12:09:45;3.37;;;1.07;;
79712;SDS011;69206;51.420;5.400;2023-04-24T12:12:12;1.97;;;0.90;;
79712;SDS011;69206;51.420;5.400;2023-04-24T12:14:48;1.47;;;0.73;;
79712;SDS011;69206;51.420;5.400;2023-04-24T12:17:40;4.37;;;0.90;;
79712;SDS011;69206;51.420;5.400;2023-04-24T12:20:08;6.60;;;1.47;;
79712;SDS011;69206;51.420;5.400;2023-04-24T12:22:46;7.27;;;1.13;;
79712;SDS011;69206;51.420;5.400;2023-04-24T12:25:14;4.50;;;1.10;;
79712;SDS011;69206;51.420;5.400;2023-04-24T12:27:40;5.32;;;1.20;;
79712;SDS011;69206;51.420;5.400;2023-04-24T12:30:09;3.53;;;1.20;;
79712;SDS011;69206;51.420;5.400;2023-04-24T12:32:40;7.30;;;1.50;;
79712;SDS011;69206;51.420;5.400;2023-04-24T12:35:06;6.83;;;1.20;;
79712;SDS011;69206;51.420;5.400;2023-04-24T12:37:32;3.80;;;1.30;;
79712;SDS011;69206;51.420;5.400;2023-04-24T12:40:03;3.00;;;1.00;;
79712;SDS011;69206;51.420;5.400;2023-04-24T12:42:33;2.43;;;0.90;;
79712;SDS011;69206;51.420;5.400;2023-04-24T12:45:00;5.87;;;1.00;;
79712;SDS011;69206;51.420;5.400;2023-04-24T12:47:27;7.03;;;1.30;;
79712;SDS011;69206;51.420;5.400;2023-04-24T12:49:54;4.50;;;0.90;;
79712;SDS011;69206;51.420;5.400;2023-04-24T12:52:23;1.03;;;0.90;;
79712;SDS011;69206;51.420;5.400;2023-04-24T12:54:52;7.72;;;1.48;;
79712;SDS011;69206;51.420;5.400;2023-04-24T12:57:19;7.88;;;1.40;;
79712;SDS011;69206;51.420;5.400;2023-04-24T12:59:44;6.27;;;0.90;;
79712;SDS011;69206;51.420;5.400;2023-04-24T13:02:10;4.45;;;1.42;;
79712;SDS011;69206;51.420;5.400;2023-04-24T13:04:36;3.93;;;1.13;;
79712;SDS011;69206;51.420;5.400;2023-04-24T13:07:02;4.07;;;1.13;;
79712;SDS011;69206;51.420;5.400;2023-04-24T13:09:28;5.72;;;1.55;;
79712;SDS011;69206;51.420;5.400;2023-04-24T13:11:53;7.10;;;1.25;;
79712;SDS011;69206;51.420;5.400;2023-04-24T13:14:19;1.33;;;1.17;;
79712;SDS011;69206;51.420;5.400;2023-04-24T13:16:45;5.10;;;1.57;;
79712;SDS011;69206;51.420;5.400;2023-04-24T13:19:10;4.37;;;1.67;;
79712;SDS011;69206;51.420;5.400;2023-04-24T13:21:36;10.50;;;1.98;;
79712;SDS011;69206;51.420;5.400;2023-04-24T13:24:01;7.35;;;2.00;;
79712;SDS011;69206;51.420;5.400;2023-04-24T13:26:29;7.23;;;2.00;;
79712;SDS011;69206;51.420;5.400;2023-04-24T13:28:55;7.33;;;1.90;;
79712;SDS011;69206;51.420;5.400;2023-04-24T13:31:21;10.60;;;1.93;;
79712;SDS011;69206;51.420;5.400;2023-04-24T13:33:46;7.83;;;1.50;;
79712;SDS011;69206;51.420;5.400;2023-04-24T13:36:11;6.87;;;1.60;;
79712;SDS011;69206;51.420;5.400;2023-04-24T13:38:37;5.63;;;1.60;;
79712;SDS011;69206;51.420;5.400;2023-04-24T13:41:02;8.97;;;1.50;;
79712;SDS011;69206;51.420;5.400;2023-04-24T13:43:28;3.37;;;1.47;;
79712;SDS011;69206;51.420;5.400;2023-04-24T13:45:53;4.37;;;1.67;;
79712;SDS011;69206;51.420;5.400;2023-04-24T13:48:18;7.83;;;1.60;;
79712;SDS011;69206;51.420;5.400;2023-04-24T13:50:44;8.63;;;2.07;;
79712;SDS011;69206;51.420;5.400;2023-04-24T13:53:09;10.57;;;1.70;;
79712;SDS011;69206;51.420;5.400;2023-04-24T13:55:35;3.83;;;1.70;;
79712;SDS011;69206;51.420;5.400;2023-04-24T13:58:01;3.33;;;1.17;;
79712;SDS011;69206;51.420;5.400;2023-04-24T14:00:27;3.87;;;1.73;;
79712;SDS011;69206;51.420;5.400;2023-04-24T14:02:53;7.00;;;1.80;;
79712;SDS011;69206;51.420;5.400;2023-04-24T14:05:18;4.20;;;1.90;;
79712;SDS011;69206;51.420;5.400;2023-04-24T14:07:44;8.07;;;2.13;;
79712;SDS011;69206;51.420;5.400;2023-04-24T14:10:09;5.68;;;2.00;;
79712;SDS011;69206;51.420;5.400;2023-04-24T14:12:35;7.53;;;2.33;;
79712;SDS011;69206;51.420;5.400;2023-04-24T14:15:01;8.70;;;1.83;;
79712;SDS011;69206;51.420;5.400;2023-04-24T14:17:26;5.17;;;1.87;;
79712;SDS011;69206;51.420;5.400;2023-04-24T14:19:51;7.97;;;1.83;;
79712;SDS011;69206;51.420;5.400;2023-04-24T14:22:20;8.10;;;2.30;;
79712;SDS011;69206;51.420;5.400;2023-04-24T14:24:46;6.40;;;1.90;;
79712;SDS011;69206;51.420;5.400;2023-04-24T14:27:11;6.60;;;2.13;;
79712;SDS011;69206;51.420;5.400;2023-04-24T14:29:36;4.00;;;1.60;;
79712;SDS011;69206;51.420;5.400;2023-04-24T14:32:02;4.60;;;1.47;;
79712;SDS011;69206;51.420;5.400;2023-04-24T14:34:27;4.53;;;1.67;;
79712;SDS011;69206;51.420;5.400;2023-04-24T14:36:53;5.83;;;1.70;;
79712;SDS011;69206;51.420;5.400;2023-04-24T14:39:19;8.80;;;1.90;;
79712;SDS011;69206;51.420;5.400;2023-04-24T14:41:45;5.87;;;2.00;;
79712;SDS011;69206;51.420;5.400;2023-04-24T14:44:10;7.20;;;2.30;;
79712;SDS011;69206;51.420;5.400;2023-04-24T14:46:36;7.13;;;2.30;;
79712;SDS011;69206;51.420;5.400;2023-04-24T14:49:01;8.63;;;1.80;;
79712;SDS011;69206;51.420;5.400;2023-04-24T14:51:27;5.37;;;1.73;;